createdAt,value
2022-10-20T00:02:19.570Z,75.19
2022-10-20T00:04:46.547Z,75.09
2022-10-20T00:07:13.056Z,75.38
2022-10-20T00:09:39.829Z,73.77
2022-10-20T00:12:06.404Z,73.72
2022-10-20T00:14:33.351Z,73.56
2022-10-20T00:17:00.977Z,73.40
2022-10-20T00:19:28.193Z,73.69
2022-10-20T00:21:54.742Z,74.71
2022-10-20T00:24:21.252Z,74.30
2022-10-20T00:26:47.999Z,74.06
2022-10-20T00:29:15.880Z,76.04
2022-10-20T00:31:43.548Z,75.68
2022-10-20T00:34:10.604Z,74.93
2022-10-20T00:36:38.757Z,74.61
2022-10-20T00:39:06.422Z,74.75
2022-10-20T00:41:33.707Z,75.24
2022-10-20T00:44:41.996Z,75.27
2022-10-20T00:47:17.310Z,75.33
2022-10-20T00:49:44.532Z,75.02
2022-10-20T00:52:11.743Z,75.19
2022-10-20T00:54:38.763Z,75.86
2022-10-20T00:57:05.957Z,76.04
2022-10-20T00:59:36.775Z,76.34
2022-10-20T01:02:06.523Z,76.91
2022-10-20T01:04:35.931Z,79.41
2022-10-20T01:07:03.361Z,77.25
2022-10-20T01:09:31.486Z,76.83
2022-10-20T01:12:07.265Z,77.33
2022-10-20T01:15:03.195Z,79.20
2022-10-20T01:17:46.032Z,78.60
2022-10-20T01:20:31.825Z,77.50
2022-10-20T01:23:26.372Z,77.49
2022-10-20T01:26:02.271Z,77.59
2022-10-20T01:28:42.072Z,79.12
2022-10-20T01:31:29.859Z,80.05
2022-10-20T01:34:09.294Z,77.95
2022-10-20T01:36:41.176Z,78.16
2022-10-20T01:39:16.101Z,78.41
2022-10-20T01:41:49.713Z,82.25
2022-10-20T01:44:20.521Z,80.78
2022-10-20T01:46:48.026Z,81.56
2022-10-20T01:49:15.763Z,80.93
2022-10-20T01:54:22.357Z,79.15
2022-10-20T01:57:17.442Z,79.93
2022-10-20T01:59:54.049Z,78.53
2022-10-20T02:02:33.597Z,80.82
2022-10-20T02:05:28.176Z,80.74
2022-10-20T02:08:07.007Z,80.99
2022-10-20T02:10:48.052Z,79.73
2022-10-20T02:13:16.955Z,78.96
2022-10-20T02:15:51.998Z,79.01
2022-10-20T02:18:25.072Z,80.37
2022-10-20T02:20:54.697Z,82.69
2022-10-20T02:23:21.757Z,81.11
2022-10-20T02:25:52.217Z,82.01
2022-10-20T02:28:20.025Z,85.19
2022-10-20T02:30:47.620Z,82.12
2022-10-20T02:33:16.499Z,81.00
2022-10-20T02:35:50.910Z,80.65
2022-10-20T02:38:17.650Z,80.14
2022-10-20T02:40:44.508Z,80.22
2022-10-20T02:43:11.244Z,80.00
2022-10-20T02:45:38.645Z,79.64
2022-10-20T02:48:08.716Z,80.20
2022-10-20T02:50:35.922Z,79.76
2022-10-20T02:53:03.752Z,79.96
2022-10-20T02:55:30.549Z,79.20
2022-10-20T02:57:57.586Z,79.51
2022-10-20T03:00:24.173Z,79.69
2022-10-20T03:02:51.861Z,79.28
2022-10-20T03:05:18.577Z,79.48
2022-10-20T03:07:45.174Z,79.56
2022-10-20T03:10:11.669Z,78.97
2022-10-20T03:12:38.406Z,78.80
2022-10-20T03:15:05.659Z,79.11
2022-10-20T03:17:32.297Z,79.22
2022-10-20T03:19:58.942Z,79.04
2022-10-20T03:22:25.607Z,79.41
2022-10-20T03:24:52.295Z,79.42
2022-10-20T03:27:18.941Z,79.14
2022-10-20T03:29:45.453Z,79.11
2022-10-20T03:32:12.048Z,78.98
2022-10-20T03:39:13.441Z,79.69
2022-10-20T03:41:39.941Z,83.85
2022-10-20T03:44:06.539Z,82.17
2022-10-20T03:46:33.129Z,80.45
2022-10-20T03:48:59.878Z,82.46
2022-10-20T03:51:26.526Z,82.43
2022-10-20T03:53:53.129Z,82.60
2022-10-20T03:56:21.028Z,80.22
2022-10-20T03:58:48.278Z,82.53
2022-10-20T04:01:16.843Z,80.80
2022-10-20T04:03:46.998Z,80.96
2022-10-20T04:06:14.719Z,81.19
2022-10-20T04:08:41.864Z,83.90
2022-10-20T04:11:08.933Z,82.83
2022-10-20T04:13:35.728Z,83.95
2022-10-20T04:16:02.329Z,82.94
2022-10-20T04:18:28.947Z,81.34
2022-10-20T04:20:55.609Z,79.85
2022-10-20T04:23:22.311Z,79.93
2022-10-20T04:25:49.113Z,80.13
2022-10-20T04:28:18.418Z,81.65
2022-10-20T04:30:46.570Z,81.74
2022-10-20T04:33:13.839Z,83.06
2022-10-20T04:35:40.929Z,83.85
2022-10-20T04:38:08.343Z,82.21
2022-10-20T04:40:34.982Z,81.23
2022-10-20T04:43:01.630Z,82.41
2022-10-20T04:45:30.045Z,82.70
2022-10-20T04:47:58.039Z,83.04
2022-10-20T04:50:24.745Z,82.99
2022-10-20T04:53:20.705Z,82.89
2022-10-20T04:55:54.133Z,83.71
2022-10-20T05:03:15.366Z,84.26
2022-10-20T05:05:41.997Z,85.86
2022-10-20T05:08:08.507Z,83.19
2022-10-20T05:10:36.683Z,83.49
2022-10-20T05:13:03.690Z,84.66
2022-10-20T05:15:30.222Z,83.49
2022-10-20T05:17:57.996Z,82.24
2022-10-20T05:20:24.565Z,81.45
2022-10-20T05:22:51.267Z,80.28
2022-10-20T05:25:35.591Z,80.82
2022-10-20T05:28:04.110Z,80.97
2022-10-20T05:30:31.063Z,80.77
2022-10-20T05:32:57.806Z,80.62
2022-10-20T05:35:24.545Z,81.25
2022-10-20T05:37:51.294Z,80.51
2022-10-20T05:40:18.124Z,80.28
2022-10-20T05:42:44.688Z,80.74
2022-10-20T05:45:11.306Z,80.45
2022-10-20T05:47:38.307Z,80.30
2022-10-20T05:50:05.471Z,81.13
2022-10-20T05:52:34.216Z,80.71
2022-10-20T05:55:02.059Z,80.77
2022-10-20T05:57:28.799Z,80.76
2022-10-20T05:59:55.549Z,80.68
2022-10-20T06:02:22.285Z,80.45
2022-10-20T06:04:48.973Z,81.80
2022-10-20T06:07:24.609Z,81.61
2022-10-20T06:09:54.911Z,80.98
2022-10-20T06:12:32.207Z,79.97
2022-10-20T06:15:01.607Z,81.23
2022-10-20T06:17:28.378Z,80.44
2022-10-20T06:19:54.994Z,80.74
2022-10-20T06:22:21.549Z,80.50
2022-10-20T06:24:48.258Z,78.36
2022-10-20T06:27:15.900Z,77.96
2022-10-20T06:29:44.805Z,78.07
2022-10-20T06:32:27.424Z,80.01
2022-10-20T06:39:52.086Z,76.82
2022-10-20T06:42:25.046Z,76.48
2022-10-20T06:44:54.760Z,75.55
2022-10-20T06:47:52.136Z,75.30
2022-10-20T06:50:44.359Z,77.31
2022-10-20T06:53:11.933Z,75.19
2022-10-20T06:55:40.239Z,74.48
2022-10-20T06:58:09.304Z,72.26
2022-10-20T07:00:36.279Z,70.03
2022-10-20T07:03:03.910Z,69.37
2022-10-20T07:06:38.261Z,67.41
2022-10-20T07:09:08.738Z,67.45
2022-10-20T07:11:36.022Z,65.16
2022-10-20T07:14:03.885Z,65.05
2022-10-20T07:16:33.753Z,64.16
2022-10-20T07:19:01.676Z,63.17
2022-10-20T07:21:34.962Z,61.55
2022-10-20T07:24:07.131Z,61.63
2022-10-20T07:26:37.613Z,61.62
2022-10-20T07:29:04.827Z,60.15
2022-10-20T07:31:37.770Z,60.58
2022-10-20T07:34:23.938Z,61.71
2022-10-20T07:36:53.418Z,59.70
2022-10-20T07:39:20.220Z,60.37
2022-10-20T07:41:47.635Z,59.41
2022-10-20T07:49:31.238Z,59.06
2022-10-20T07:51:50.847Z,58.56
2022-10-20T07:54:17.914Z,58.30
2022-10-20T07:56:45.826Z,58.49
2022-10-20T07:59:13.754Z,58.35
2022-10-20T08:01:41.569Z,57.21
2022-10-20T08:04:08.364Z,57.47
2022-10-20T08:11:11.142Z,57.54
2022-10-20T08:13:40.333Z,56.15
2022-10-20T08:16:15.480Z,55.05
2022-10-20T08:18:46.122Z,54.61
2022-10-20T08:21:16.889Z,54.25
2022-10-20T08:23:46.398Z,55.03
2022-10-20T08:26:18.058Z,55.37
2022-10-20T08:28:44.782Z,55.03
2022-10-20T08:31:11.437Z,54.62
2022-10-20T08:33:39.274Z,55.41
2022-10-20T08:36:09.285Z,55.28
2022-10-20T08:38:37.323Z,56.18
2022-10-20T08:41:12.440Z,54.87
2022-10-20T08:48:34.195Z,54.12
2022-10-20T08:51:00.860Z,53.39
2022-10-20T08:53:35.468Z,52.49
2022-10-20T08:56:02.145Z,51.51
2022-10-20T08:58:28.845Z,51.66
2022-10-20T09:00:58.514Z,51.68
2022-10-20T09:03:31.034Z,52.21
2022-10-20T09:06:09.560Z,48.50
2022-10-20T09:08:39.019Z,47.65
2022-10-20T09:15:37.929Z,45.00
2022-10-20T09:18:11.076Z,45.74
2022-10-20T09:20:58.201Z,44.03
2022-10-20T09:23:42.692Z,46.07
2022-10-20T09:26:24.834Z,45.83
2022-10-20T09:29:16.196Z,46.36
2022-10-20T09:31:49.472Z,46.07
2022-10-20T09:34:31.576Z,46.75
2022-10-20T09:37:12.710Z,45.82
2022-10-20T09:39:55.424Z,46.47
2022-10-20T09:42:29.288Z,47.58
2022-10-20T09:44:57.460Z,47.14
2022-10-20T09:47:26.668Z,47.00
2022-10-20T09:50:00.956Z,47.09
2022-10-20T09:52:40.188Z,48.02
2022-10-20T09:55:22.234Z,47.33
2022-10-20T09:57:49.362Z,47.30
2022-10-20T10:00:36.218Z,46.66
2022-10-20T10:03:21.866Z,46.68
2022-10-20T10:05:56.666Z,48.87
2022-10-20T10:08:40.255Z,49.93
2022-10-20T10:11:16.533Z,48.95
2022-10-20T10:13:46.104Z,49.20
2022-10-20T10:16:16.745Z,49.03
2022-10-20T10:18:49.220Z,49.19
2022-10-20T10:21:16.991Z,50.59
2022-10-20T10:23:59.599Z,50.28
2022-10-20T10:26:41.807Z,50.75
2022-10-20T10:29:28.208Z,49.77
2022-10-20T10:32:29.970Z,50.57
2022-10-20T10:35:18.217Z,49.89
2022-10-20T10:37:46.148Z,49.67
2022-10-20T10:40:18.764Z,48.56
2022-10-20T10:42:55.337Z,48.69
2022-10-20T10:45:34.392Z,49.21
2022-10-20T10:52:18.855Z,48.22
2022-10-20T10:54:51.632Z,47.81
2022-10-20T10:57:53.109Z,47.62
2022-10-20T11:00:39.144Z,47.65
2022-10-20T11:03:37.617Z,48.15
2022-10-20T11:06:36.676Z,47.45
2022-10-20T11:09:29.226Z,46.95
2022-10-20T11:16:20.482Z,47.14
2022-10-20T11:19:11.831Z,47.56
2022-10-20T11:22:03.470Z,47.19
2022-10-20T11:24:48.693Z,46.60
2022-10-20T11:28:06.444Z,46.40
2022-10-20T11:30:33.610Z,47.18
2022-10-20T11:33:12.493Z,46.85
2022-10-20T11:35:58.214Z,47.41
2022-10-20T11:38:40.814Z,46.75
2022-10-20T11:41:16.581Z,46.67
2022-10-20T11:43:50.005Z,47.20
2022-10-20T11:47:15.587Z,46.42
2022-10-20T11:49:43.442Z,47.42
2022-10-20T11:57:15.517Z,48.50
2022-10-20T12:00:06.683Z,48.59
2022-10-20T12:02:48.629Z,48.42
2022-10-20T12:05:27.710Z,48.26
2022-10-20T12:08:45.507Z,48.55
2022-10-20T12:11:17.405Z,48.35
2022-10-20T12:14:02.705Z,47.96
2022-10-20T12:16:51.663Z,48.13
2022-10-20T12:19:33.189Z,48.40
2022-10-20T12:23:17.228Z,48.10
2022-10-20T12:25:44.087Z,47.23
2022-10-20T12:33:17.572Z,46.48
2022-10-20T12:35:58.681Z,46.17
2022-10-20T12:38:26.931Z,46.11
2022-10-20T12:40:57.772Z,45.56
2022-10-20T12:43:46.061Z,44.89
2022-10-20T12:46:20.744Z,45.25
2022-10-20T12:48:56.086Z,45.50
2022-10-20T12:51:32.250Z,45.78
2022-10-20T12:54:25.002Z,45.34
2022-10-20T12:56:58.604Z,44.23
2022-10-20T12:59:28.354Z,43.75
2022-10-20T13:02:10.529Z,43.85
2022-10-20T13:04:59.188Z,43.38
2022-10-20T13:07:48.253Z,43.80
2022-10-20T13:10:31.091Z,45.26
2022-10-20T13:13:01.322Z,45.55
2022-10-20T13:15:36.449Z,45.39
2022-10-20T13:18:34.830Z,45.05
2022-10-20T13:21:32.114Z,45.77
2022-10-20T13:24:28.926Z,46.33
2022-10-20T13:27:01.087Z,46.89
2022-10-20T13:29:35.475Z,47.35
2022-10-20T13:32:25.102Z,47.64
2022-10-20T13:35:08.880Z,47.92
2022-10-20T13:37:54.004Z,48.42
2022-10-20T13:40:46.163Z,48.38
2022-10-20T13:43:44.242Z,48.27
2022-10-20T13:46:50.142Z,47.78
2022-10-20T13:49:29.321Z,47.14
2022-10-20T13:52:03.125Z,46.58
2022-10-20T13:55:25.466Z,46.57
2022-10-20T13:57:58.555Z,45.69
2022-10-20T14:00:31.345Z,45.94
2022-10-20T14:03:23.990Z,45.89
2022-10-20T14:05:53.905Z,45.28
2022-10-20T14:08:23.527Z,45.79
2022-10-20T14:10:59.781Z,45.62
2022-10-20T14:13:35.943Z,45.20
2022-10-20T14:16:16.407Z,46.33
2022-10-20T14:18:43.084Z,47.65
2022-10-20T14:21:18.594Z,48.06
2022-10-20T14:23:48.654Z,48.17
2022-10-20T14:26:19.651Z,48.68
2022-10-20T14:28:49.304Z,48.94
2022-10-20T14:31:20.210Z,49.83
2022-10-20T14:33:49.507Z,49.15
2022-10-20T14:36:23.683Z,48.93
2022-10-20T14:38:56.864Z,47.82
2022-10-20T14:41:25.611Z,48.03
2022-10-20T14:44:04.894Z,49.07
2022-10-20T14:46:40.450Z,48.36
2022-10-20T14:49:26.387Z,50.02
2022-10-20T14:51:59.278Z,48.66
2022-10-20T14:57:06.995Z,49.65
2022-10-20T14:59:58.640Z,50.78
2022-10-20T15:02:51.061Z,50.54
2022-10-20T15:05:39.309Z,51.83
2022-10-20T15:08:10.049Z,52.21
2022-10-20T15:10:38.532Z,53.36
2022-10-20T15:13:05.311Z,52.90
2022-10-20T15:15:38.563Z,53.11
2022-10-20T15:18:05.306Z,53.78
2022-10-20T15:20:35.738Z,54.68
2022-10-20T15:23:24.700Z,54.47
2022-10-20T15:26:00.000Z,54.27
2022-10-20T15:28:37.344Z,55.45
2022-10-20T15:31:15.777Z,53.68
2022-10-20T15:33:43.102Z,55.75
2022-10-20T15:36:12.786Z,55.37
2022-10-20T15:38:39.455Z,56.18
2022-10-20T15:41:06.289Z,56.44
2022-10-20T15:43:33.042Z,55.48
2022-10-20T15:45:59.889Z,56.06
2022-10-20T15:48:26.465Z,55.95
2022-10-20T15:50:54.293Z,56.65
2022-10-20T15:53:20.987Z,56.16
2022-10-20T15:55:47.579Z,58.36
2022-10-20T15:58:14.313Z,58.97
2022-10-20T16:00:41.171Z,60.97
2022-10-20T16:03:16.411Z,60.28
2022-10-20T16:05:44.167Z,60.90
2022-10-20T16:08:10.967Z,61.11
2022-10-20T16:10:39.289Z,63.13
2022-10-20T16:13:05.901Z,61.72
2022-10-20T16:15:32.489Z,61.26
2022-10-20T16:17:59.325Z,63.40
2022-10-20T16:20:26.067Z,64.32
2022-10-20T16:22:52.797Z,64.27
2022-10-20T16:25:19.412Z,63.04
2022-10-20T16:27:46.056Z,62.65
2022-10-20T16:30:12.730Z,62.79
2022-10-20T16:32:39.730Z,63.08
2022-10-20T16:35:07.482Z,64.50
2022-10-20T16:37:34.483Z,63.52
2022-10-20T16:40:01.832Z,63.90
2022-10-20T16:42:29.772Z,63.55
2022-10-20T16:44:57.026Z,63.79
2022-10-20T16:47:26.876Z,64.95
2022-10-20T16:49:53.632Z,65.20
2022-10-20T16:52:20.384Z,65.23
2022-10-20T16:54:47.151Z,65.64
2022-10-20T16:57:13.983Z,66.30
2022-10-20T16:59:42.320Z,66.56
2022-10-20T17:02:11.886Z,66.78
2022-10-20T17:04:39.086Z,66.88
2022-10-20T17:07:08.117Z,66.74
2022-10-20T17:09:35.030Z,67.29
2022-10-20T17:12:01.765Z,71.85
2022-10-20T17:14:28.621Z,72.31
2022-10-20T17:16:55.337Z,71.83
2022-10-20T17:19:22.034Z,68.93
2022-10-20T17:21:51.266Z,70.36
2022-10-20T17:24:20.459Z,69.80
2022-10-20T17:26:47.164Z,68.55
2022-10-20T17:29:14.185Z,67.69
2022-10-20T17:31:40.994Z,67.01
2022-10-20T17:34:08.588Z,69.20
2022-10-20T17:36:35.374Z,68.83
2022-10-20T17:39:10.302Z,67.93
2022-10-20T17:41:37.006Z,68.46
2022-10-20T17:44:05.695Z,70.32
2022-10-20T17:46:33.064Z,72.01
2022-10-20T17:49:01.103Z,69.47
2022-10-20T17:51:31.784Z,70.24
2022-10-20T17:54:02.609Z,72.73
2022-10-20T17:56:35.398Z,70.65
2022-10-20T17:59:03.683Z,69.92
2022-10-20T18:01:38.514Z,69.60
2022-10-20T18:04:16.524Z,69.18
2022-10-20T18:06:45.081Z,69.72
2022-10-20T18:09:14.900Z,69.77
2022-10-20T18:11:49.153Z,70.29
2022-10-20T18:14:16.673Z,70.53
2022-10-20T18:16:43.826Z,70.90
2022-10-20T18:19:16.507Z,71.17
2022-10-20T18:21:43.864Z,71.79
2022-10-20T18:24:12.760Z,70.87
2022-10-20T18:26:39.526Z,71.52
2022-10-20T18:29:08.365Z,71.55
2022-10-20T18:31:36.834Z,71.55
2022-10-20T18:34:07.066Z,71.32
2022-10-20T18:36:39.120Z,71.53
2022-10-20T18:39:09.741Z,71.55
2022-10-20T18:41:39.618Z,71.45
2022-10-20T18:44:11.758Z,71.44
2022-10-20T18:46:39.201Z,75.32
2022-10-20T18:49:07.786Z,72.73
2022-10-20T18:51:35.803Z,72.16
2022-10-20T18:54:04.628Z,71.76
2022-10-20T18:56:31.638Z,71.95
2022-10-20T18:59:01.233Z,72.26
2022-10-20T19:01:30.993Z,72.64
2022-10-20T19:03:58.922Z,72.74
2022-10-20T19:06:28.739Z,72.77
2022-10-20T19:09:01.766Z,72.62
2022-10-20T19:11:31.581Z,72.35
2022-10-20T19:13:59.312Z,73.96
2022-10-20T19:16:28.965Z,72.82
2022-10-20T19:18:57.914Z,74.29
2022-10-20T19:21:25.989Z,74.75
2022-10-20T19:23:57.465Z,74.46
2022-10-20T19:26:57.533Z,72.50
2022-10-20T19:29:35.322Z,72.20
2022-10-20T19:32:04.624Z,72.70
2022-10-20T19:34:34.689Z,72.47
2022-10-20T19:37:02.769Z,73.37
2022-10-20T19:39:36.410Z,73.35
2022-10-20T19:42:04.056Z,74.03
2022-10-20T19:44:31.283Z,74.02
2022-10-20T19:46:58.158Z,73.72
2022-10-20T19:49:26.206Z,74.43
2022-10-20T19:51:53.352Z,74.42
2022-10-20T19:54:20.196Z,74.42
2022-10-20T19:56:47.041Z,76.42
2022-10-20T19:59:14.120Z,76.16
2022-10-20T20:01:41.141Z,74.39
2022-10-20T20:04:07.999Z,75.72
2022-10-20T20:06:35.139Z,73.93
2022-10-20T20:09:05.856Z,73.59
2022-10-20T20:11:34.356Z,77.01
2022-10-20T20:14:11.444Z,75.70
2022-10-20T20:16:39.543Z,75.27
2022-10-20T20:19:06.459Z,74.46
2022-10-20T20:21:33.824Z,73.72
2022-10-20T20:24:03.242Z,74.30
2022-10-20T20:26:32.731Z,73.93
2022-10-20T20:29:00.145Z,73.92
2022-10-20T20:31:27.868Z,74.62
2022-10-20T20:33:57.004Z,74.60
2022-10-20T20:36:26.181Z,74.16
2022-10-20T20:38:58.573Z,73.85
2022-10-20T20:41:29.530Z,74.56
2022-10-20T20:43:56.306Z,74.54
2022-10-20T20:46:28.237Z,74.55
2022-10-20T20:48:55.321Z,74.78
2022-10-20T20:51:22.476Z,74.80
2022-10-20T20:53:49.250Z,74.94
2022-10-20T20:56:20.501Z,76.16
2022-10-20T20:58:50.381Z,75.43
2022-10-20T21:01:21.150Z,75.14
2022-10-20T21:03:53.065Z,75.54
2022-10-20T21:06:22.966Z,76.09
2022-10-20T21:08:55.892Z,76.26
2022-10-20T21:11:25.550Z,76.11
2022-10-20T21:13:54.816Z,75.87
2022-10-20T21:16:25.245Z,75.49
2022-10-20T21:18:54.739Z,75.99
2022-10-20T21:21:26.597Z,75.63
2022-10-20T21:23:55.084Z,75.93
2022-10-20T21:26:22.761Z,75.72
2022-10-20T21:28:49.888Z,76.11
2022-10-20T21:31:19.077Z,77.68
2022-10-20T21:33:49.887Z,78.12
2022-10-20T21:36:18.715Z,76.81
2022-10-20T21:38:46.798Z,76.21
2022-10-20T21:41:18.694Z,76.42
2022-10-20T21:43:48.113Z,77.23
2022-10-20T21:46:22.582Z,79.54
2022-10-20T21:48:51.398Z,78.82
2022-10-20T21:51:19.738Z,77.32
2022-10-20T21:53:47.213Z,76.65
2022-10-20T21:56:15.794Z,76.26
2022-10-20T21:58:42.553Z,76.80
2022-10-20T22:01:17.654Z,77.59
2022-10-20T22:03:45.851Z,76.63
2022-10-20T22:06:15.463Z,78.84
2022-10-20T22:08:45.256Z,80.81
2022-10-20T22:11:16.788Z,77.74
2022-10-20T22:13:43.505Z,80.85
2022-10-20T22:16:14.307Z,80.58
2022-10-20T22:18:41.565Z,78.97
2022-10-20T22:21:17.489Z,78.81
2022-10-20T22:23:44.879Z,79.09
2022-10-20T22:26:11.997Z,76.94
2022-10-20T22:28:39.512Z,78.88
2022-10-20T22:31:06.948Z,78.38
2022-10-20T22:33:34.430Z,77.96
2022-10-20T22:36:01.662Z,79.06
2022-10-20T22:38:28.545Z,78.18
2022-10-20T22:40:59.984Z,80.60
2022-10-20T22:43:28.439Z,79.20
2022-10-20T22:45:55.340Z,78.56
2022-10-20T22:48:22.447Z,78.55
2022-10-20T22:50:49.795Z,77.35
2022-10-20T22:53:16.790Z,77.02
2022-10-20T22:55:43.576Z,78.66
2022-10-20T22:58:10.253Z,80.55
2022-10-20T23:00:41.462Z,77.64
2022-10-20T23:03:08.829Z,78.90
2022-10-20T23:05:36.235Z,78.70
2022-10-20T23:08:02.908Z,80.39
2022-10-20T23:10:30.298Z,83.41
2022-10-20T23:12:56.825Z,82.16
2022-10-20T23:15:23.413Z,77.75
2022-10-20T23:17:50.098Z,77.24
2022-10-20T23:20:16.639Z,77.54
2022-10-20T23:22:43.282Z,78.37
2022-10-20T23:25:09.796Z,77.75
2022-10-20T23:27:36.955Z,76.99
2022-10-20T23:30:04.730Z,77.17
2022-10-20T23:32:31.516Z,77.40
2022-10-20T23:34:58.137Z,77.04
2022-10-20T23:37:24.841Z,77.15
2022-10-20T23:39:51.527Z,78.05
2022-10-20T23:42:18.056Z,78.56
2022-10-20T23:44:44.816Z,78.80
2022-10-20T23:47:11.402Z,78.53
2022-10-20T23:49:38.462Z,78.07
2022-10-20T23:52:05.101Z,79.67
2022-10-20T23:54:31.816Z,78.72
2022-10-20T23:56:58.515Z,78.37
2022-10-20T23:59:25.207Z,77.68
